Tamdy, Uzbekistan
Current Conditions -  °F | °C
As of 2:00 AM on Wednesday 28 Jan 2015 (Local Time) from UTSA Reporting Station
Haze Haze  
Wind Chill: 19°   Ceiling: Unl
Heat Index: 28°   Visibility: 2.1mi
Dew Point: 18°   Wind: 10mph
Humidity: 64%   Direction: 80°E
Pressure: 30.21"   Gusts: NA
Location:  41.73°N, 64.62°E
Report Text: UTSA 272100Z 08009KT 3500 BR NSC M02/M08 Q1023 R07/CLRD70NOSIG
Loading
Personal Weather Stations






























Interactive Weather Map New forecast layout! Learn more

10-Day Weather Forecast

Advertisements
Track Severe Weather on mobile